Time;durP1;ratioP1;P1;durP2;ratioP2;P2;SDS_P1;SDS_P2;PMS_P1;PMS_P2;Temp;Humidity;BMP_temperature;BMP_pressure;BME280_temperature;BME280_humidity;BME280_pressure;Samples;Min_cycle;Max_cycle;Signal;HPM_P1;HPM_P2
2021/05/09 00:01:40;;;;;;;7.68;2.72;;;;;;;;;;5021871;28;20014;-84
2021/05/09 00:04:05;;;;;;;7.63;2.55;;;;;;;;;;5017332;28;20380;-84
2021/05/09 00:06:31;;;;;;;6.13;2.70;;;;;;;;;;5015808;28;20025;-84
2021/05/09 00:08:57;;;;;;;10.45;3.00;;;;;;;;;;5022793;28;20033;-84
2021/05/09 00:11:22;;;;;;;6.00;2.78;;;;;;;;;;5015699;28;20432;-84
2021/05/09 00:13:47;;;;;;;4.85;2.72;;;;;;;;;;5013676;28;20018;-84
2021/05/09 00:16:13;;;;;;;5.57;2.53;;;;;;;;;;5016118;28;20456;-84
2021/05/09 00:18:38;;;;;;;5.28;2.63;;;;;;;;;;5018918;28;20352;-84
2021/05/09 00:21:04;;;;;;;6.55;2.63;;;;;;;;;;5019739;28;20644;-84
2021/05/09 00:23:29;;;;;;;9.80;3.42;;;;;;;;;;5016410;28;20029;-84
2021/05/09 00:25:54;;;;;;;7.53;3.13;;;;;;;;;;5035253;28;20022;-83
2021/05/09 00:28:20;;;;;;;12.15;3.40;;;;;;;;;;5020977;28;20208;-84
2021/05/09 00:30:46;;;;;;;7.18;2.75;;;;;;;;;;5011775;28;20026;-84
2021/05/09 00:33:11;;;;;;;8.10;2.78;;;;;;;;;;5019829;28;20030;-84
2021/05/09 00:35:36;;;;;;;8.70;3.08;;;;;;;;;;5013794;28;20022;-84
2021/05/09 00:38:01;;;;;;;7.40;2.95;;;;;;;;;;5028642;28;20028;-84
2021/05/09 00:40:27;;;;;;;9.07;3.05;;;;;;;;;;5017986;28;20111;-84
2021/05/09 00:42:55;;;;;;;9.30;3.00;;;;;;;;;;5019667;28;20026;-84
2021/05/09 00:45:20;;;;;;;5.78;2.80;;;;;;;;;;5010369;28;20030;-84
2021/05/09 00:47:46;;;;;;;6.20;2.45;;;;;;;;;;5012541;28;20530;-83
2021/05/09 00:50:11;;;;;;;6.28;2.72;;;;;;;;;;5010786;28;20037;-84
2021/05/09 00:52:39;;;;;;;6.75;2.60;;;;;;;;;;5022650;28;20050;-84
2021/05/09 00:55:05;;;;;;;7.22;2.88;;;;;;;;;;5020268;28;20029;-84
2021/05/09 00:57:35;;;;;;;9.10;2.88;;;;;;;;;;5017995;28;20449;-84
2021/05/09 01:00:01;;;;;;;8.15;2.70;;;;;;;;;;5024168;28;20026;-84
2021/05/09 01:02:27;;;;;;;7.15;2.80;;;;;;;;;;5007706;28;20477;-83
2021/05/09 01:04:53;;;;;;;8.73;3.10;;;;;;;;;;5023177;28;20112;-83
2021/05/09 01:07:18;;;;;;;6.80;2.95;;;;;;;;;;5014221;28;20483;-84
2021/05/09 01:09:43;;;;;;;5.90;3.10;;;;;;;;;;5011308;28;20053;-84
2021/05/09 01:12:10;;;;;;;7.68;2.92;;;;;;;;;;5011781;28;20070;-84
2021/05/09 01:14:35;;;;;;;8.32;2.75;;;;;;;;;;5015484;28;20025;-84
2021/05/09 01:17:00;;;;;;;5.60;2.80;;;;;;;;;;5013406;28;20048;-84
2021/05/09 01:19:26;;;;;;;6.32;2.90;;;;;;;;;;5029483;28;20072;-84
2021/05/09 01:21:51;;;;;;;4.55;2.63;;;;;;;;;;5033146;28;20022;-84
2021/05/09 01:24:16;;;;;;;7.05;2.58;;;;;;;;;;5010377;28;20037;-84
2021/05/09 01:26:41;;;;;;;6.40;3.15;;;;;;;;;;5017484;28;20465;-84
2021/05/09 01:29:07;;;;;;;7.85;3.00;;;;;;;;;;5022228;28;20017;-84
2021/05/09 01:31:32;;;;;;;11.55;2.90;;;;;;;;;;5013534;28;20087;-84
2021/05/09 01:33:57;;;;;;;5.28;2.72;;;;;;;;;;5016008;28;20456;-84
2021/05/09 01:36:23;;;;;;;8.32;2.65;;;;;;;;;;5011875;28;20057;-83
2021/05/09 01:38:48;;;;;;;6.88;2.65;;;;;;;;;;5014234;28;20040;-84
2021/05/09 01:41:13;;;;;;;4.90;2.55;;;;;;;;;;5015857;28;20026;-84
2021/05/09 01:43:38;;;;;;;9.65;3.03;;;;;;;;;;5021596;28;20026;-84
2021/05/09 01:46:03;;;;;;;5.57;2.97;;;;;;;;;;5021095;28;20045;-84
2021/05/09 01:48:29;;;;;;;9.48;2.78;;;;;;;;;;5019114;28;20074;-84
2021/05/09 01:50:54;;;;;;;6.07;2.88;;;;;;;;;;5013925;28;20033;-84
2021/05/09 01:53:20;;;;;;;9.95;3.13;;;;;;;;;;5009311;28;20025;-84
2021/05/09 01:55:45;;;;;;;7.20;3.13;;;;;;;;;;5013014;28;20017;-84
2021/05/09 01:58:10;;;;;;;7.97;2.70;;;;;;;;;;5017747;28;20049;-84
2021/05/09 02:00:35;;;;;;;5.88;2.58;;;;;;;;;;5010555;28;20022;-84
2021/05/09 02:03:00;;;;;;;6.78;2.90;;;;;;;;;;5015065;28;20105;-83
2021/05/09 02:05:26;;;;;;;5.28;2.92;;;;;;;;;;5018132;28;20033;-83
2021/05/09 02:07:51;;;;;;;7.78;3.13;;;;;;;;;;5020057;28;20030;-84
2021/05/09 02:10:16;;;;;;;8.43;2.53;;;;;;;;;;5016016;28;20029;-84
2021/05/09 02:12:41;;;;;;;7.57;2.85;;;;;;;;;;5010655;28;20032;-84
2021/05/09 02:15:07;;;;;;;5.93;2.67;;;;;;;;;;5012488;28;20049;-84
2021/05/09 02:17:32;;;;;;;6.13;2.70;;;;;;;;;;5016959;28;20041;-84
2021/05/09 02:19:57;;;;;;;6.47;2.92;;;;;;;;;;5015763;28;20074;-84
2021/05/09 02:22:23;;;;;;;9.60;3.05;;;;;;;;;;5016973;28;20062;-84
2021/05/09 02:24:48;;;;;;;7.53;4.15;;;;;;;;;;5022892;28;20026;-84
2021/05/09 02:27:13;;;;;;;6.13;3.50;;;;;;;;;;5015568;28;20132;-84
2021/05/09 02:29:39;;;;;;;5.50;2.80;;;;;;;;;;5015277;28;20022;-84
2021/05/09 02:32:04;;;;;;;7.50;3.03;;;;;;;;;;5013402;28;20038;-83
2021/05/09 02:34:30;;;;;;;9.38;3.28;;;;;;;;;;5011897;28;20110;-84
2021/05/09 02:36:55;;;;;;;8.23;3.28;;;;;;;;;;5003721;28;20022;-83
2021/05/09 02:39:20;;;;;;;6.50;2.88;;;;;;;;;;5016265;28;20029;-84
2021/05/09 02:41:45;;;;;;;7.05;2.70;;;;;;;;;;5013871;28;20105;-83
2021/05/09 02:44:11;;;;;;;7.95;4.15;;;;;;;;;;5020674;28;20128;-83
2021/05/09 02:46:36;;;;;;;7.90;3.35;;;;;;;;;;5016611;28;20018;-84
2021/05/09 02:49:02;;;;;;;5.50;3.20;;;;;;;;;;5018499;28;20366;-84
2021/05/09 02:51:27;;;;;;;7.78;3.30;;;;;;;;;;5013435;28;20025;-83
2021/05/09 02:53:52;;;;;;;4.13;2.92;;;;;;;;;;5011126;28;20026;-84
2021/05/09 02:56:18;;;;;;;6.22;2.80;;;;;;;;;;5015968;28;20045;-83
2021/05/09 02:58:43;;;;;;;10.13;3.08;;;;;;;;;;5010524;28;20051;-84
2021/05/09 03:01:08;;;;;;;7.70;3.40;;;;;;;;;;5017095;28;20026;-84
2021/05/09 03:03:33;;;;;;;5.93;3.47;;;;;;;;;;5010570;28;20033;-84
2021/05/09 03:05:59;;;;;;;8.25;3.00;;;;;;;;;;5023570;28;20033;-84
2021/05/09 03:08:24;;;;;;;6.05;3.03;;;;;;;;;;5016731;28;20483;-84
2021/05/09 03:10:49;;;;;;;5.38;3.22;;;;;;;;;;5008250;28;20061;-84
2021/05/09 03:13:14;;;;;;;8.10;3.17;;;;;;;;;;5009499;28;20381;-84
2021/05/09 03:15:40;;;;;;;6.68;3.35;;;;;;;;;;5019638;28;20480;-84
2021/05/09 03:18:05;;;;;;;7.63;3.60;;;;;;;;;;5016153;28;20034;-83
2021/05/09 03:20:30;;;;;;;6.32;3.28;;;;;;;;;;5013081;28;20024;-84
2021/05/09 03:22:56;;;;;;;7.05;3.35;;;;;;;;;;5016349;28;20028;-83
2021/05/09 03:25:21;;;;;;;6.85;3.90;;;;;;;;;;5012006;28;20368;-84
2021/05/09 03:27:46;;;;;;;12.07;3.40;;;;;;;;;;5011793;28;20030;-83
2021/05/09 03:30:11;;;;;;;12.50;3.72;;;;;;;;;;5020683;28;20040;-84
2021/05/09 03:32:37;;;;;;;10.00;3.75;;;;;;;;;;5018426;28;20104;-84
2021/05/09 03:35:02;;;;;;;9.00;3.33;;;;;;;;;;5011125;28;20025;-84
2021/05/09 03:37:28;;;;;;;7.47;3.47;;;;;;;;;;5012928;28;20022;-83
2021/05/09 03:39:53;;;;;;;13.32;3.72;;;;;;;;;;5022971;28;20025;-84
2021/05/09 03:42:18;;;;;;;10.77;3.30;;;;;;;;;;5016896;28;20374;-84
2021/05/09 03:44:43;;;;;;;9.63;3.17;;;;;;;;;;5014964;28;20024;-84
2021/05/09 03:47:09;;;;;;;7.22;3.30;;;;;;;;;;5021220;28;20113;-83
2021/05/09 03:49:34;;;;;;;9.18;3.83;;;;;;;;;;5016659;28;20048;-83
2021/05/09 03:51:59;;;;;;;7.03;3.50;;;;;;;;;;5012957;28;20018;-83
2021/05/09 03:54:24;;;;;;;8.88;3.72;;;;;;;;;;5017152;28;20029;-83
2021/05/09 03:56:49;;;;;;;12.27;3.70;;;;;;;;;;5024085;28;20018;-83
2021/05/09 03:59:15;;;;;;;6.20;3.20;;;;;;;;;;5012510;28;20414;-84
2021/05/09 04:01:42;;;;;;;7.82;3.25;;;;;;;;;;5013234;28;20106;-84
2021/05/09 04:04:07;;;;;;;5.85;3.28;;;;;;;;;;5018099;28;20417;-84
2021/05/09 04:06:32;;;;;;;6.15;3.20;;;;;;;;;;5025552;28;20056;-84
2021/05/09 04:08:57;;;;;;;5.30;3.35;;;;;;;;;;5013926;28;20105;-83
2021/05/09 04:11:22;;;;;;;7.28;3.42;;;;;;;;;;5014533;28;20120;-83
2021/05/09 04:13:49;;;;;;;6.82;3.17;;;;;;;;;;5016927;28;20030;-83
2021/05/09 04:16:14;;;;;;;6.20;3.25;;;;;;;;;;5026756;28;20455;-84
2021/05/09 04:18:39;;;;;;;6.72;3.35;;;;;;;;;;5013094;28;20053;-84
2021/05/09 04:21:04;;;;;;;11.82;3.90;;;;;;;;;;5017861;28;20022;-83
2021/05/09 04:23:30;;;;;;;7.15;3.47;;;;;;;;;;5018533;28;20025;-83
2021/05/09 04:25:55;;;;;;;6.75;4.22;;;;;;;;;;5014642;28;20034;-83
2021/05/09 04:28:21;;;;;;;7.85;4.40;;;;;;;;;;5018912;28;20045;-83
2021/05/09 04:30:46;;;;;;;7.25;3.45;;;;;;;;;;5017187;28;20021;-83
2021/05/09 04:33:12;;;;;;;6.85;3.17;;;;;;;;;;5020067;28;20029;-83
2021/05/09 04:35:40;;;;;;;7.50;3.13;;;;;;;;;;5014892;28;20405;-83
2021/05/09 04:38:05;;;;;;;10.15;3.42;;;;;;;;;;5021560;28;20353;-83
2021/05/09 04:40:30;;;;;;;6.03;3.60;;;;;;;;;;5012349;28;20014;-83
2021/05/09 04:43:04;;;;;;;9.80;3.65;;;;;;;;;;5022472;28;20021;-83
2021/05/09 04:45:29;;;;;;;6.75;4.10;;;;;;;;;;5013706;28;20472;-84
2021/05/09 04:47:54;;;;;;;5.60;3.25;;;;;;;;;;5023018;28;20029;-83
2021/05/09 04:50:19;;;;;;;7.60;3.25;;;;;;;;;;5010543;28;20118;-83
2021/05/09 04:52:44;;;;;;;10.82;3.58;;;;;;;;;;5010584;28;20018;-83
2021/05/09 04:55:10;;;;;;;6.30;3.90;;;;;;;;;;5012072;28;20445;-83
2021/05/09 04:57:35;;;;;;;9.90;4.40;;;;;;;;;;5021448;28;20022;-83
2021/05/09 05:00:01;;;;;;;10.25;4.50;;;;;;;;;;5018889;28;20018;-83
2021/05/09 05:02:26;;;;;;;10.38;4.65;;;;;;;;;;5018503;28;20354;-84
2021/05/09 05:04:51;;;;;;;8.93;4.35;;;;;;;;;;5017923;28;20049;-84
2021/05/09 05:07:16;;;;;;;8.27;4.30;;;;;;;;;;5016498;28;20066;-84
2021/05/09 05:09:42;;;;;;;10.55;4.65;;;;;;;;;;5020975;28;20030;-84
2021/05/09 05:12:08;;;;;;;8.73;3.50;;;;;;;;;;5017457;28;20539;-84
2021/05/09 05:14:33;;;;;;;8.80;4.05;;;;;;;;;;5024687;28;20373;-84
2021/05/09 05:16:59;;;;;;;8.48;4.32;;;;;;;;;;5022955;28;20017;-84
2021/05/09 05:19:24;;;;;;;5.25;3.45;;;;;;;;;;5012489;28;20014;-84
2021/05/09 05:21:49;;;;;;;8.27;3.75;;;;;;;;;;5020934;28;20394;-84
2021/05/09 05:24:16;;;;;;;6.93;3.03;;;;;;;;;;5025122;28;20022;-84
2021/05/09 05:26:42;;;;;;;15.02;3.17;;;;;;;;;;5036575;28;20025;-84
2021/05/09 05:29:07;;;;;;;4.90;2.65;;;;;;;;;;5022242;28;20109;-84
2021/05/09 05:31:32;;;;;;;5.00;2.72;;;;;;;;;;5023059;28;20101;-84
2021/05/09 05:33:59;;;;;;;5.18;3.00;;;;;;;;;;5010906;28;20068;-84
2021/05/09 05:36:24;;;;;;;4.32;2.83;;;;;;;;;;5009309;28;20021;-84
2021/05/09 05:38:50;;;;;;;6.15;2.80;;;;;;;;;;5019500;28;20014;-84
2021/05/09 05:41:15;;;;;;;10.15;3.03;;;;;;;;;;5014196;28;20024;-84
2021/05/09 05:43:40;;;;;;;6.05;2.33;;;;;;;;;;5016963;28;20113;-84
2021/05/09 05:46:05;;;;;;;4.55;2.45;;;;;;;;;;5014615;28;20442;-84
2021/05/09 05:48:31;;;;;;;5.20;2.28;;;;;;;;;;5009704;28;20022;-84
2021/05/09 05:50:56;;;;;;;7.15;2.50;;;;;;;;;;5010316;28;20022;-84
2021/05/09 05:53:22;;;;;;;7.45;2.42;;;;;;;;;;5016197;28;20041;-84
2021/05/09 05:55:48;;;;;;;6.20;2.70;;;;;;;;;;5019715;28;20033;-84
2021/05/09 05:58:13;;;;;;;3.97;1.92;;;;;;;;;;5014542;28;20036;-84
2021/05/09 06:00:39;;;;;;;6.63;2.38;;;;;;;;;;5009443;28;20032;-84
2021/05/09 06:03:04;;;;;;;4.60;2.30;;;;;;;;;;5017224;28;20033;-84
2021/05/09 06:05:29;;;;;;;4.32;2.20;;;;;;;;;;5013623;28;20033;-84
2021/05/09 06:07:54;;;;;;;4.60;2.40;;;;;;;;;;5020426;28;20128;-84
2021/05/09 06:10:20;;;;;;;4.13;2.08;;;;;;;;;;5010738;28;20029;-85
2021/05/09 06:12:45;;;;;;;5.78;1.98;;;;;;;;;;5011770;28;20121;-85
2021/05/09 06:15:10;;;;;;;3.53;1.92;;;;;;;;;;5022127;28;20406;-85
2021/05/09 06:17:35;;;;;;;5.57;1.80;;;;;;;;;;5011083;28;20029;-85
2021/05/09 06:20:01;;;;;;;4.20;1.98;;;;;;;;;;5013818;28;20029;-85
2021/05/09 06:22:26;;;;;;;5.15;1.70;;;;;;;;;;5023846;28;20026;-85
2021/05/09 06:24:52;;;;;;;5.60;2.10;;;;;;;;;;5011076;28;20032;-86
2021/05/09 06:27:17;;;;;;;7.43;1.85;;;;;;;;;;5015262;28;20112;-85
2021/05/09 06:29:42;;;;;;;5.63;2.15;;;;;;;;;;5008871;28;20086;-85
2021/05/09 06:32:07;;;;;;;6.60;2.10;;;;;;;;;;5011882;28;20026;-85
2021/05/09 06:34:32;;;;;;;3.92;2.30;;;;;;;;;;5008878;28;20034;-85
2021/05/09 06:36:58;;;;;;;4.85;2.30;;;;;;;;;;5018103;28;20022;-85
2021/05/09 06:39:28;;;;;;;4.13;2.00;;;;;;;;;;5022105;28;20418;-85
2021/05/09 06:41:56;;;;;;;3.25;1.77;;;;;;;;;;5035164;28;20022;-86
2021/05/09 06:44:21;;;;;;;5.22;1.90;;;;;;;;;;5021805;28;20032;-85
2021/05/09 06:46:47;;;;;;;3.75;1.98;;;;;;;;;;5014289;28;20101;-85
2021/05/09 06:49:14;;;;;;;3.53;1.85;;;;;;;;;;5012586;28;20022;-85
2021/05/09 06:51:39;;;;;;;3.50;1.85;;;;;;;;;;5007683;28;20087;-85
2021/05/09 06:54:04;;;;;;;8.60;1.77;;;;;;;;;;5008197;28;20018;-85
2021/05/09 06:56:31;;;;;;;2.83;1.77;;;;;;;;;;5009339;28;20018;-84
2021/05/09 06:58:56;;;;;;;8.88;2.45;;;;;;;;;;5021623;28;20075;-85
2021/05/09 07:01:22;;;;;;;4.72;2.28;;;;;;;;;;5004795;28;20030;-85
2021/05/09 07:03:47;;;;;;;4.00;2.03;;;;;;;;;;5009392;28;20010;-84
2021/05/09 07:06:12;;;;;;;3.13;1.88;;;;;;;;;;5012016;28;20033;-85
2021/05/09 07:08:37;;;;;;;7.00;2.10;;;;;;;;;;5016606;28;20029;-85
2021/05/09 07:11:03;;;;;;;6.15;2.00;;;;;;;;;;5020842;28;20034;-85
2021/05/09 07:13:28;;;;;;;5.47;2.17;;;;;;;;;;5011115;28;20018;-85
2021/05/09 07:15:55;;;;;;;6.82;2.72;;;;;;;;;;5017881;28;20048;-85
2021/05/09 07:18:22;;;;;;;5.68;2.47;;;;;;;;;;5018960;28;20018;-85
2021/05/09 07:20:55;;;;;;;4.13;2.13;;;;;;;;;;5041166;28;20131;-85
2021/05/09 07:23:20;;;;;;;6.78;2.47;;;;;;;;;;5032332;28;20486;-85
2021/05/09 07:25:46;;;;;;;11.80;2.30;;;;;;;;;;5030882;28;20132;-85
2021/05/09 07:28:13;;;;;;;4.47;2.10;;;;;;;;;;5042075;28;21571;-85
2021/05/09 07:30:39;;;;;;;6.53;2.40;;;;;;;;;;5012123;28;20036;-85
2021/05/09 07:33:04;;;;;;;5.55;2.28;;;;;;;;;;5021579;28;20372;-85
2021/05/09 07:35:30;;;;;;;8.25;2.30;;;;;;;;;;5031199;28;20030;-85
2021/05/09 07:37:55;;;;;;;5.55;2.40;;;;;;;;;;5016707;28;20422;-85
2021/05/09 07:40:21;;;;;;;4.72;2.20;;;;;;;;;;5010797;28;20401;-86
2021/05/09 07:42:46;;;;;;;4.80;2.47;;;;;;;;;;5037712;28;20026;-86
2021/05/09 07:45:20;;;;;;;4.22;2.25;;;;;;;;;;5026738;28;20038;-85
2021/05/09 07:47:46;;;;;;;2.67;1.90;;;;;;;;;;5018156;28;20104;-85
2021/05/09 07:50:11;;;;;;;5.20;2.08;;;;;;;;;;5014355;28;20030;-85
2021/05/09 07:52:37;;;;;;;7.10;2.03;;;;;;;;;;5016129;28;20026;-85
2021/05/09 07:55:03;;;;;;;3.20;2.10;;;;;;;;;;5006797;28;20033;-85
2021/05/09 07:57:28;;;;;;;4.32;2.17;;;;;;;;;;5041789;28;20512;-85
2021/05/09 07:59:53;;;;;;;3.00;1.50;;;;;;;;;;5024878;28;20400;-85
2021/05/09 08:02:20;;;;;;;4.45;2.40;;;;;;;;;;5017171;28;20018;-86
2021/05/09 08:04:45;;;;;;;2.80;1.85;;;;;;;;;;5021944;28;20029;-86
2021/05/09 08:07:11;;;;;;;5.20;2.72;;;;;;;;;;5011895;28;20026;-86
2021/05/09 08:09:36;;;;;;;4.13;2.60;;;;;;;;;;5018845;28;20379;-86
2021/05/09 08:12:01;;;;;;;7.05;2.85;;;;;;;;;;5016582;28;20064;-85
2021/05/09 08:14:26;;;;;;;2.58;1.40;;;;;;;;;;5040341;28;20376;-86
2021/05/09 08:16:53;;;;;;;3.00;2.03;;;;;;;;;;5019269;28;20133;-86
2021/05/09 08:19:18;;;;;;;2.72;1.80;;;;;;;;;;5012007;28;20428;-85
2021/05/09 08:21:43;;;;;;;5.05;2.72;;;;;;;;;;5013455;28;20060;-85
2021/05/09 08:24:08;;;;;;;4.63;2.55;;;;;;;;;;5016028;28;20078;-85
2021/05/09 08:26:33;;;;;;;5.93;2.40;;;;;;;;;;5017779;28;20030;-85
2021/05/09 08:28:59;;;;;;;7.35;2.33;;;;;;;;;;5022588;28;20025;-85
2021/05/09 08:31:24;;;;;;;5.05;2.92;;;;;;;;;;5039335;28;20033;-86
2021/05/09 08:33:50;;;;;;;6.97;2.45;;;;;;;;;;5028370;28;20026;-85
2021/05/09 08:36:15;;;;;;;6.32;2.90;;;;;;;;;;5038052;28;20022;-87
2021/05/09 08:38:40;;;;;;;5.95;2.50;;;;;;;;;;5022571;28;20071;-87
2021/05/09 08:41:06;;;;;;;5.18;2.90;;;;;;;;;;5033002;28;20458;-88
2021/05/09 08:43:31;;;;;;;7.53;2.63;;;;;;;;;;5042060;28;20032;-90
2021/05/09 08:45:57;;;;;;;4.38;2.15;;;;;;;;;;5039363;28;20021;-89
2021/05/09 08:48:24;;;;;;;6.20;2.03;;;;;;;;;;5015675;28;20083;-89
2021/05/09 08:50:52;;;;;;;4.40;2.42;;;;;;;;;;5033799;28;20062;-88
2021/05/09 08:53:18;;;;;;;9.60;2.38;;;;;;;;;;5021674;28;20022;-89
2021/05/09 08:55:43;;;;;;;6.03;2.60;;;;;;;;;;5028954;28;20026;-89
2021/05/09 08:58:09;;;;;;;2.25;1.90;;;;;;;;;;5006435;28;20473;-89
2021/05/09 09:00:34;;;;;;;3.22;2.05;;;;;;;;;;5014071;28;20672;-89
2021/05/09 09:03:04;;;;;;;4.07;1.83;;;;;;;;;;5015269;28;20025;-89
2021/05/09 09:05:33;;;;;;;4.03;2.17;;;;;;;;;;5020857;28;20032;-89
2021/05/09 09:07:58;;;;;;;7.15;2.25;;;;;;;;;;5017855;28;20124;-89
2021/05/09 09:10:42;;;;;;;5.15;2.13;;;;;;;;;;5009953;28;20100;-88
2021/05/09 09:13:25;;;;;;;3.95;2.20;;;;;;;;;;5006070;28;20026;-89
2021/05/09 09:15:50;;;;;;;3.00;1.98;;;;;;;;;;5029966;28;20124;-89
2021/05/09 09:18:31;;;;;;;8.57;2.60;;;;;;;;;;5014845;28;20030;-89
2021/05/09 09:20:57;;;;;;;6.18;2.65;;;;;;;;;;5019194;28;20527;-89
2021/05/09 09:23:22;;;;;;;4.93;2.40;;;;;;;;;;5025466;28;20364;-89
2021/05/09 09:25:47;;;;;;;5.18;2.70;;;;;;;;;;5013907;28;20018;-89
2021/05/09 09:28:13;;;;;;;4.85;2.85;;;;;;;;;;5023288;28;20029;-90
2021/05/09 09:30:54;;;;;;;5.22;2.67;;;;;;;;;;5025364;28;20049;-89
2021/05/09 09:33:20;;;;;;;6.03;2.63;;;;;;;;;;5011587;28;20551;-89
2021/05/09 09:35:46;;;;;;;6.50;2.60;;;;;;;;;;5018232;28;20124;-89
2021/05/09 09:38:20;;;;;;;4.00;2.90;;;;;;;;;;5011130;28;20118;-89
2021/05/09 09:41:04;;;;;;;3.90;1.80;;;;;;;;;;5024022;28;20173;-89
2021/05/09 09:43:30;;;;;;;4.70;2.70;;;;;;;;;;5008479;28;20018;-89
2021/05/09 09:45:55;;;;;;;7.35;2.55;;;;;;;;;;5012741;28;20452;-90
2021/05/09 09:48:35;;;;;;;5.53;3.00;;;;;;;;;;5022679;28;20029;-89
2021/05/09 09:51:00;;;;;;;3.10;1.88;;;;;;;;;;5026451;28;20018;-89
2021/05/09 09:53:33;;;;;;;5.20;2.30;;;;;;;;;;5011239;28;20033;-89
2021/05/09 09:56:05;;;;;;;4.22;2.63;;;;;;;;;;5024031;28;20093;-89
2021/05/09 09:58:39;;;;;;;6.72;2.95;;;;;;;;;;5013707;28;20034;-88
2021/05/09 10:01:05;;;;;;;5.15;2.97;;;;;;;;;;5021902;28;20051;-89
2021/05/09 10:03:30;;;;;;;5.30;2.30;;;;;;;;;;5011581;28;20429;-89
2021/05/09 10:05:57;;;;;;;3.90;2.38;;;;;;;;;;5020378;28;20018;-89
2021/05/09 10:08:23;;;;;;;15.35;3.72;;;;;;;;;;5019171;28;20045;-89
2021/05/09 10:10:49;;;;;;;8.90;3.97;;;;;;;;;;5023792;28;20010;-88
2021/05/09 10:13:14;;;;;;;8.10;3.00;;;;;;;;;;5013358;28;20018;-89
2021/05/09 10:15:39;;;;;;;6.50;3.30;;;;;;;;;;5020143;28;20104;-88
2021/05/09 10:18:06;;;;;;;8.85;2.95;;;;;;;;;;5012334;28;20044;-89
2021/05/09 10:20:31;;;;;;;5.65;2.75;;;;;;;;;;5015822;28;20151;-89
2021/05/09 10:23:06;;;;;;;9.52;3.42;;;;;;;;;;5010256;28;20495;-89
2021/05/09 10:25:52;;;;;;;7.28;2.85;;;;;;;;;;5022366;28;20029;-89
2021/05/09 10:28:19;;;;;;;5.00;2.15;;;;;;;;;;5016163;28;20442;-89
2021/05/09 10:30:45;;;;;;;4.10;2.15;;;;;;;;;;5018061;28;20021;-89
2021/05/09 10:33:30;;;;;;;3.50;2.42;;;;;;;;;;5009284;28;20028;-89
2021/05/09 10:35:56;;;;;;;9.30;2.30;;;;;;;;;;5013754;28;20416;-88
2021/05/09 10:38:21;;;;;;;6.43;2.67;;;;;;;;;;5010351;28;20025;-89
2021/05/09 10:40:46;;;;;;;18.15;2.70;;;;;;;;;;5012980;28;20032;-89
2021/05/09 10:43:12;;;;;;;4.25;2.33;;;;;;;;;;5008895;28;20381;-89
2021/05/09 10:45:40;;;;;;;8.73;2.10;;;;;;;;;;5013670;28;20484;-89
2021/05/09 10:48:18;;;;;;;7.10;2.50;;;;;;;;;;5010988;28;20442;-90
2021/05/09 10:51:02;;;;;;;6.05;2.67;;;;;;;;;;5016011;28;20025;-89
2021/05/09 10:53:52;;;;;;;8.82;2.50;;;;;;;;;;5015429;28;20146;-89
2021/05/09 10:56:15;;;;;;;5.85;2.10;;;;;;;;;;5014431;28;20034;-89
2021/05/09 10:58:47;;;;;;;4.63;1.90;;;;;;;;;;5020598;28;20025;-89
2021/05/09 11:01:13;;;;;;;7.10;2.47;;;;;;;;;;5024533;28;20769;-89
2021/05/09 11:03:41;;;;;;;2.97;2.15;;;;;;;;;;5075280;28;20018;-88
2021/05/09 11:06:12;;;;;;;7.07;2.20;;;;;;;;;;5028653;28;20473;-89
2021/05/09 11:08:53;;;;;;;10.27;3.03;;;;;;;;;;5008023;28;20029;-89
2021/05/09 11:11:19;;;;;;;30.75;2.83;;;;;;;;;;5007693;28;20022;-88
2021/05/09 11:13:57;;;;;;;9.70;2.80;;;;;;;;;;5010569;28;20417;-89
2021/05/09 11:16:22;;;;;;;10.68;2.00;;;;;;;;;;5013398;28;20022;-89
2021/05/09 11:19:06;;;;;;;7.53;2.83;;;;;;;;;;5010086;28;20033;-91
2021/05/09 11:21:32;;;;;;;13.43;2.17;;;;;;;;;;4996482;28;20381;-89
2021/05/09 11:23:58;;;;;;;7.43;2.40;;;;;;;;;;5078732;28;20029;-90
2021/05/09 11:26:27;;;;;;;12.32;2.30;;;;;;;;;;5009910;28;20430;-90
2021/05/09 11:29:07;;;;;;;22.80;3.45;;;;;;;;;;5008836;28;20550;-90
2021/05/09 11:31:52;;;;;;;13.13;2.50;;;;;;;;;;5000643;28;20021;-88
2021/05/09 11:34:18;;;;;;;9.73;2.53;;;;;;;;;;5039109;28;20485;-89
2021/05/09 11:36:44;;;;;;;3.80;2.50;;;;;;;;;;5034791;28;20053;-89
2021/05/09 11:39:12;;;;;;;6.45;2.70;;;;;;;;;;5020841;28;20172;-89
2021/05/09 11:41:55;;;;;;;9.52;3.25;;;;;;;;;;5019464;28;20577;-88
2021/05/09 11:44:21;;;;;;;9.48;3.47;;;;;;;;;;5021032;28;20033;-88
2021/05/09 11:46:46;;;;;;;9.10;3.35;;;;;;;;;;5017173;28;20375;-88
2021/05/09 11:49:15;;;;;;;8.30;2.50;;;;;;;;;;5022352;28;20022;-88
2021/05/09 11:51:54;;;;;;;6.53;3.20;;;;;;;;;;5011781;28;20025;-89
2021/05/09 11:54:21;;;;;;;7.05;3.58;;;;;;;;;;5008682;28;20082;-88
2021/05/09 11:56:50;;;;;;;6.35;3.00;;;;;;;;;;5012219;28;20013;-89
2021/05/09 11:59:27;;;;;;;8.77;2.90;;;;;;;;;;5021300;28;20112;-88
2021/05/09 12:01:52;;;;;;;6.85;3.38;;;;;;;;;;5019504;28;20126;-89
2021/05/09 12:04:18;;;;;;;3.78;2.72;;;;;;;;;;5041056;28;20033;-89
2021/05/09 12:06:43;;;;;;;7.57;2.35;;;;;;;;;;5024388;28;20025;-88
2021/05/09 12:09:09;;;;;;;4.78;2.47;;;;;;;;;;5014707;28;20354;-89
2021/05/09 12:11:34;;;;;;;7.28;3.30;;;;;;;;;;5015103;28;20490;-88
2021/05/09 12:13:59;;;;;;;5.07;2.33;;;;;;;;;;5017738;28;20109;-87
2021/05/09 12:16:24;;;;;;;4.25;2.60;;;;;;;;;;5035430;28;20023;-86
2021/05/09 12:18:49;;;;;;;6.82;2.95;;;;;;;;;;5018522;28;20393;-86
2021/05/09 12:21:15;;;;;;;3.17;1.65;;;;;;;;;;5015325;28;20026;-86
2021/05/09 12:23:40;;;;;;;3.22;2.45;;;;;;;;;;5030135;28;20040;-86
2021/05/09 12:26:09;;;;;;;7.75;2.67;;;;;;;;;;5015958;28;20028;-85
2021/05/09 12:28:34;;;;;;;5.88;2.78;;;;;;;;;;5018594;28;20112;-86
2021/05/09 12:31:09;;;;;;;6.25;2.42;;;;;;;;;;5016733;28;20122;-86
2021/05/09 12:33:35;;;;;;;4.95;1.40;;;;;;;;;;5011955;28;20506;-86
2021/05/09 12:36:10;;;;;;;7.72;4.00;;;;;;;;;;5022932;28;20021;-86
2021/05/09 12:38:35;;;;;;;5.63;3.20;;;;;;;;;;5011100;28;20095;-86
2021/05/09 12:41:07;;;;;;;10.05;3.53;;;;;;;;;;5016545;28;20407;-86
2021/05/09 12:43:46;;;;;;;6.45;2.97;;;;;;;;;;5015914;28;20083;-86
2021/05/09 12:46:30;;;;;;;5.10;2.72;;;;;;;;;;5011106;28;20094;-86
2021/05/09 12:49:05;;;;;;;2.42;1.60;;;;;;;;;;5029994;28;20018;-86
2021/05/09 12:51:30;;;;;;;4.00;2.53;;;;;;;;;;5102165;27;20030;-86
2021/05/09 12:53:55;;;;;;;4.35;2.50;;;;;;;;;;5013748;28;20029;-86
2021/05/09 12:56:31;;;;;;;5.85;3.00;;;;;;;;;;5010362;28;20054;-86
2021/05/09 12:58:56;;;;;;;9.40;2.30;;;;;;;;;;5010241;28;20044;-86
2021/05/09 13:01:21;;;;;;;3.45;1.80;;;;;;;;;;5018753;28;20021;-86
2021/05/09 13:03:46;;;;;;;10.82;2.65;;;;;;;;;;5025847;28;20146;-86
2021/05/09 13:06:12;;;;;;;6.68;2.47;;;;;;;;;;5048820;28;20076;-87
2021/05/09 13:08:37;;;;;;;6.65;2.60;;;;;;;;;;5032841;28;20022;-85
2021/05/09 13:11:02;;;;;;;4.70;1.80;;;;;;;;;;5010409;28;20040;-87
2021/05/09 13:13:27;;;;;;;1.98;1.08;;;;;;;;;;5018404;28;20464;-87
2021/05/09 13:15:52;;;;;;;7.82;2.78;;;;;;;;;;5013367;28;20030;-87
2021/05/09 13:18:17;;;;;;;12.13;2.60;;;;;;;;;;5008919;28;20018;-87
2021/05/09 13:20:43;;;;;;;4.82;2.50;;;;;;;;;;5007341;28;20018;-86
2021/05/09 13:23:08;;;;;;;12.60;2.60;;;;;;;;;;5009959;28;20029;-87
2021/05/09 13:25:34;;;;;;;12.73;2.70;;;;;;;;;;5009342;28;20079;-86
2021/05/09 13:28:00;;;;;;;96.95;5.07;;;;;;;;;;5009619;28;20514;-87
2021/05/09 13:30:25;;;;;;;5.80;1.95;;;;;;;;;;5008315;28;20025;-86
2021/05/09 13:32:50;;;;;;;4.07;2.05;;;;;;;;;;5023344;28;20029;-86
2021/05/09 13:35:15;;;;;;;9.05;2.20;;;;;;;;;;5008592;28;20116;-87
2021/05/09 13:37:41;;;;;;;7.55;2.55;;;;;;;;;;5023703;28;20049;-86
2021/05/09 13:40:07;;;;;;;4.43;1.83;;;;;;;;;;5011685;28;20046;-86
2021/05/09 13:42:32;;;;;;;4.50;2.65;;;;;;;;;;5028991;28;20033;-86
2021/05/09 13:44:57;;;;;;;6.50;2.55;;;;;;;;;;5009380;28;20034;-87
2021/05/09 13:47:25;;;;;;;6.07;2.50;;;;;;;;;;5008282;28;20135;-86
2021/05/09 13:49:50;;;;;;;3.63;2.22;;;;;;;;;;5008488;28;20026;-86
2021/05/09 13:52:15;;;;;;;5.78;2.40;;;;;;;;;;5025744;28;20017;-87
2021/05/09 13:54:40;;;;;;;3.88;1.55;;;;;;;;;;5009036;28;20488;-87
2021/05/09 13:57:05;;;;;;;5.72;2.22;;;;;;;;;;5020053;28;20472;-86
2021/05/09 13:59:31;;;;;;;4.18;1.90;;;;;;;;;;5025903;28;20097;-86
2021/05/09 14:01:56;;;;;;;5.05;2.22;;;;;;;;;;5008416;28;20465;-87
2021/05/09 14:04:21;;;;;;;2.60;1.35;;;;;;;;;;5010350;28;20042;-86
2021/05/09 14:06:46;;;;;;;5.93;2.10;;;;;;;;;;5019009;28;20018;-86
2021/05/09 14:09:11;;;;;;;6.03;2.40;;;;;;;;;;5053400;28;20496;-86
2021/05/09 14:11:37;;;;;;;3.22;2.05;;;;;;;;;;5046718;28;20469;-87
2021/05/09 14:14:02;;;;;;;5.68;2.50;;;;;;;;;;5023131;28;20029;-86
2021/05/09 14:16:28;;;;;;;4.15;2.17;;;;;;;;;;5020486;28;20017;-87
2021/05/09 14:18:54;;;;;;;7.43;2.42;;;;;;;;;;5041969;28;20076;-86
2021/05/09 14:21:20;;;;;;;4.13;2.20;;;;;;;;;;5015983;28;20026;-87
2021/05/09 14:23:45;;;;;;;9.18;2.30;;;;;;;;;;5010512;28;20025;-86
2021/05/09 14:26:10;;;;;;;8.35;2.28;;;;;;;;;;5028669;28;20014;-86
2021/05/09 14:28:36;;;;;;;11.98;2.20;;;;;;;;;;5035139;28;20020;-87
2021/05/09 14:31:01;;;;;;;4.30;2.30;;;;;;;;;;5022604;28;20018;-86
2021/05/09 14:33:26;;;;;;;10.85;2.63;;;;;;;;;;5017454;28;20110;-86
2021/05/09 14:35:52;;;;;;;5.78;2.03;;;;;;;;;;5010567;28;20056;-86
2021/05/09 14:38:17;;;;;;;8.43;2.17;;;;;;;;;;5017260;28;20014;-86